createdAt,value
2019-04-19T00:02:15.053Z,21.50
2019-04-19T00:07:24.136Z,21.93
2019-04-19T00:12:39.947Z,22.50
2019-04-19T00:17:35.473Z,22.80
2019-04-19T00:23:04.286Z,23.43
2019-04-19T00:27:59.915Z,23.10
2019-04-19T00:33:25.080Z,21.82
2019-04-19T00:38:36.898Z,22.53
2019-04-19T00:43:58.924Z,22.00
2019-04-19T00:49:02.826Z,23.83
2019-04-19T00:54:11.890Z,22.83
2019-04-19T00:59:10.175Z,23.13
2019-04-19T01:04:18.810Z,23.37
2019-04-19T01:09:34.483Z,24.73
2019-04-19T01:14:36.382Z,24.73
2019-04-19T01:19:32.635Z,26.33
2019-04-19T01:24:42.878Z,24.97
2019-04-19T01:29:48.704Z,22.90
2019-04-19T01:34:57.921Z,23.30
2019-04-19T01:40:14.915Z,23.90
2019-04-19T01:45:41.819Z,22.33
2019-04-19T01:51:03.327Z,22.73
2019-04-19T01:56:02.833Z,24.23
2019-04-19T02:01:12.417Z,23.50
2019-04-19T02:06:16.279Z,25.70
2019-04-19T02:11:51.366Z,22.30
2019-04-19T02:16:55.923Z,23.90
2019-04-19T02:22:02.072Z,25.10
2019-04-19T02:27:09.128Z,22.77
2019-04-19T02:32:41.063Z,23.17
2019-04-19T02:37:49.309Z,25.90
2019-04-19T02:42:51.376Z,26.77
2019-04-19T02:47:57.826Z,27.93
2019-04-19T02:53:14.478Z,25.87
2019-04-19T03:08:10.421Z,25.57
2019-04-19T03:13:35.377Z,24.07
2019-04-19T03:18:52.164Z,22.97
2019-04-19T03:23:44.995Z,23.77
2019-04-19T03:28:46.423Z,23.63
2019-04-19T03:34:16.264Z,23.23
2019-04-19T03:39:17.901Z,24.87
2019-04-19T03:44:29.240Z,31.07
2019-04-19T03:49:37.200Z,24.03
2019-04-19T03:54:39.167Z,23.83
2019-04-19T03:59:33.411Z,22.27
2019-04-19T04:04:38.851Z,24.53
2019-04-19T04:09:57.845Z,25.00
2019-04-19T04:15:37.013Z,31.87
2019-04-19T04:20:28.569Z,25.83
2019-04-19T04:25:44.128Z,29.73
2019-04-19T04:30:57.566Z,22.97
2019-04-19T04:36:15.645Z,28.63
2019-04-19T04:41:05.648Z,28.87
2019-04-19T04:46:48.562Z,33.37
2019-04-19T04:51:52.641Z,33.20
2019-04-19T04:56:59.194Z,29.50
2019-04-19T05:02:04.558Z,30.23
2019-04-19T05:07:25.691Z,27.67
2019-04-19T05:12:43.526Z,24.63
2019-04-19T05:22:43.047Z,23.37
2019-04-19T05:27:55.301Z,23.63
2019-04-19T05:32:54.924Z,23.07
2019-04-19T05:38:08.465Z,25.37
2019-04-19T05:43:44.847Z,22.40
2019-04-19T05:48:24.659Z,24.00
2019-04-19T05:53:27.809Z,24.40
2019-04-19T05:58:39.657Z,24.33
2019-04-19T06:03:48.497Z,24.83
2019-04-19T06:08:40.478Z,23.73
2019-04-19T06:13:57.129Z,25.33
2019-04-19T06:19:16.639Z,23.83
2019-04-19T06:24:30.142Z,24.70
2019-04-19T06:29:41.223Z,26.57
2019-04-19T06:34:39.951Z,24.27
2019-04-19T06:39:28.765Z,25.77
2019-04-19T06:44:56.096Z,25.47
2019-04-19T06:49:41.775Z,25.60
2019-04-19T06:54:48.130Z,25.83
2019-04-19T07:00:07.575Z,29.07
2019-04-19T07:05:15.231Z,23.70
2019-04-19T07:10:39.708Z,23.57
2019-04-19T07:15:44.199Z,23.50
2019-04-19T07:20:33.692Z,21.70
2019-04-19T07:25:54.472Z,21.13
2019-04-19T07:30:37.415Z,20.47
2019-04-19T07:36:00.624Z,21.47
2019-04-19T07:41:29.307Z,22.27
2019-04-19T07:46:38.393Z,22.87
2019-04-19T07:51:34.172Z,23.00
2019-04-19T07:56:48.465Z,21.53
2019-04-19T08:12:19.001Z,20.55
2019-04-19T08:27:26.876Z,23.12
2019-04-19T08:32:27.847Z,23.38
2019-04-19T08:37:37.818Z,20.65
2019-04-19T08:42:54.123Z,20.00
2019-04-19T08:48:11.898Z,19.15
2019-04-19T08:53:26.784Z,19.43
2019-04-19T08:58:39.851Z,19.35
2019-04-19T09:03:49.285Z,20.82
2019-04-19T09:08:46.242Z,18.25
2019-04-19T09:14:02.302Z,20.43
2019-04-19T09:19:12.361Z,18.75
2019-04-19T09:24:01.912Z,20.27
2019-04-19T09:29:29.321Z,18.60
2019-04-19T09:34:13.255Z,18.62
2019-04-19T09:39:44.590Z,20.60
2019-04-19T09:44:46.095Z,16.90
2019-04-19T09:50:01.468Z,17.67
2019-04-19T09:55:15.362Z,16.80
2019-04-19T10:00:08.850Z,16.80
2019-04-19T10:05:09.690Z,16.57
2019-04-19T10:10:16.183Z,16.60
2019-04-19T10:15:40.540Z,15.78
2019-04-19T10:21:09.984Z,16.10
2019-04-19T10:26:24.333Z,16.37
2019-04-19T10:31:39.744Z,15.90
2019-04-19T10:36:47.700Z,15.73
2019-04-19T10:41:52.273Z,15.70
2019-04-19T10:46:58.763Z,15.03
2019-04-19T10:52:10.452Z,16.07
2019-04-19T10:57:21.272Z,15.90
2019-04-19T11:02:36.691Z,14.60
2019-04-19T11:07:43.647Z,15.15
2019-04-19T11:13:08.804Z,15.00
2019-04-19T11:18:14.355Z,14.60
2019-04-19T11:23:21.793Z,15.33
2019-04-19T11:28:27.185Z,16.37
2019-04-19T11:33:34.931Z,15.30
2019-04-19T11:38:41.206Z,16.63
2019-04-19T11:43:47.655Z,17.35
2019-04-19T11:48:52.892Z,17.70
2019-04-19T11:53:59.226Z,17.50
2019-04-19T11:59:08.888Z,17.02
2019-04-19T12:04:14.399Z,16.75
2019-04-19T12:09:22.682Z,17.20
2019-04-19T12:14:29.554Z,18.75
2019-04-19T12:19:45.297Z,18.13
2019-04-19T12:24:42.835Z,18.12
2019-04-19T12:29:51.389Z,17.52
2019-04-19T12:34:55.418Z,17.25
2019-04-19T12:40:01.072Z,17.83
2019-04-19T12:45:10.181Z,19.37
2019-04-19T12:50:17.952Z,19.55
2019-04-19T12:55:24.107Z,18.05
2019-04-19T13:00:56.304Z,16.87
2019-04-19T13:06:01.789Z,19.77
2019-04-19T13:11:07.658Z,17.25
2019-04-19T13:16:12.902Z,18.65
2019-04-19T13:21:19.867Z,17.45
2019-04-19T13:26:25.324Z,18.80
2019-04-19T13:31:31.113Z,17.83
2019-04-19T13:36:51.339Z,17.77
2019-04-19T13:42:05.193Z,17.40
2019-04-19T13:47:10.992Z,16.40
2019-04-19T13:52:16.653Z,17.45
2019-04-19T13:57:23.724Z,17.20
2019-04-19T14:02:29.427Z,16.55
2019-04-19T14:07:34.896Z,16.65
2019-04-19T14:12:40.997Z,17.20
2019-04-19T14:17:46.010Z,17.40
2019-04-19T14:22:51.872Z,17.87
2019-04-19T14:27:57.610Z,18.73
2019-04-19T14:33:04.172Z,17.02
2019-04-19T14:38:11.804Z,18.50
2019-04-19T14:43:20.532Z,18.75
2019-04-19T14:48:36.888Z,20.00
2019-04-19T14:53:42.826Z,22.22
2019-04-19T14:58:48.377Z,18.17
2019-04-19T15:03:57.043Z,20.10
2019-04-19T15:09:05.834Z,19.37
2019-04-19T15:14:14.522Z,19.97
2019-04-19T15:19:23.106Z,17.35
2019-04-19T15:24:28.622Z,18.62
2019-04-19T15:29:34.695Z,17.42
2019-04-19T15:34:40.773Z,17.20
2019-04-19T15:39:47.936Z,17.45
2019-04-19T15:44:55.254Z,16.82
2019-04-19T15:50:02.298Z,16.15
2019-04-19T15:55:14.203Z,16.40
2019-04-19T16:00:27.908Z,17.30
2019-04-19T16:05:44.442Z,16.90
2019-04-19T16:11:08.886Z,17.90
2019-04-19T16:16:16.454Z,16.40
2019-04-19T16:21:31.246Z,17.57
2019-04-19T16:26:31.015Z,18.63
2019-04-19T16:31:38.218Z,18.17
2019-04-19T16:36:45.442Z,18.98
2019-04-19T16:41:51.110Z,17.65
2019-04-19T16:46:59.304Z,17.07
2019-04-19T16:52:04.918Z,17.77
2019-04-19T16:57:20.759Z,16.33
2019-04-19T17:02:20.248Z,18.20
2019-04-19T17:07:26.824Z,18.07
2019-04-19T17:12:32.764Z,17.65
2019-04-19T17:17:46.813Z,17.62
2019-04-19T17:22:58.691Z,18.07
2019-04-19T17:28:05.123Z,17.73
2019-04-19T17:33:10.492Z,20.00
2019-04-19T17:38:26.918Z,18.67
2019-04-19T17:43:23.607Z,19.10
2019-04-19T17:48:30.439Z,17.65
2019-04-19T17:53:42.322Z,18.70
2019-04-19T17:58:42.614Z,18.75
2019-04-19T18:03:58.814Z,17.75
2019-04-19T18:09:12.801Z,18.20
2019-04-19T18:14:14.227Z,18.40
2019-04-19T18:19:26.347Z,18.05
2019-04-19T18:24:29.727Z,17.07
2019-04-19T18:29:37.983Z,17.83
2019-04-19T18:34:45.710Z,20.37
2019-04-19T18:39:54.369Z,21.20
2019-04-19T18:45:02.675Z,21.37
2019-04-19T18:50:08.625Z,19.23
2019-04-19T18:55:20.814Z,19.42
2019-04-19T19:00:22.216Z,20.65
2019-04-19T19:05:28.082Z,20.05
2019-04-19T19:10:43.630Z,20.90
2019-04-19T19:15:48.182Z,20.27
2019-04-19T19:20:55.810Z,20.67
2019-04-19T19:26:10.601Z,22.60
2019-04-19T19:31:04.938Z,21.65
2019-04-19T19:36:12.463Z,20.08
2019-04-19T19:41:29.875Z,20.70
2019-04-19T19:46:51.257Z,19.77
2019-04-19T19:51:47.752Z,19.53
2019-04-19T19:57:08.293Z,18.92
2019-04-19T20:02:05.936Z,18.40
2019-04-19T20:07:06.129Z,25.15
2019-04-19T20:12:32.974Z,21.75
2019-04-19T20:17:38.768Z,18.80
2019-04-19T20:22:45.279Z,18.03
2019-04-19T20:27:51.730Z,19.52
2019-04-19T20:32:59.133Z,19.07
2019-04-19T20:38:07.286Z,20.55
2019-04-19T20:43:25.380Z,24.05
2019-04-19T20:48:20.674Z,18.55
2019-04-19T21:14:09.278Z,21.77
2019-04-19T21:19:14.419Z,21.50
2019-04-19T21:24:20.461Z,21.20
2019-04-19T21:29:30.192Z,24.80
2019-04-19T21:34:36.494Z,21.85
2019-04-19T21:39:44.887Z,21.52
2019-04-19T21:44:51.641Z,23.00
2019-04-19T21:49:57.070Z,20.92
2019-04-19T21:55:12.493Z,22.77
2019-04-19T22:00:21.153Z,18.42
2019-04-19T22:05:30.611Z,19.05
2019-04-19T22:10:39.941Z,18.95
2019-04-19T22:15:44.200Z,17.35
2019-04-19T22:20:54.114Z,18.60
2019-04-19T22:26:09.629Z,18.13
2019-04-19T22:31:12.517Z,19.07
2019-04-19T22:36:19.548Z,20.37
2019-04-19T22:41:26.837Z,19.48
2019-04-19T22:46:39.121Z,20.70
2019-04-19T22:51:40.599Z,20.93
2019-04-19T22:56:58.588Z,18.37
2019-04-19T23:02:10.311Z,19.00
2019-04-19T23:07:16.755Z,19.40
2019-04-19T23:12:22.703Z,20.37
2019-04-19T23:17:34.884Z,22.80
2019-04-19T23:22:40.665Z,24.20
2019-04-19T23:27:49.015Z,24.80
2019-04-19T23:32:50.335Z,23.60
2019-04-19T23:37:55.601Z,25.43
2019-04-19T23:43:33.599Z,23.62
2019-04-19T23:48:33.630Z,21.07
2019-04-19T23:53:42.820Z,21.10
2019-04-19T23:58:46.587Z,26.12
